createdAt,value
2023-04-08T00:07:24.036Z,1.60
2023-04-08T00:17:25.806Z,1.40
2023-04-08T00:22:18.142Z,1.70
2023-04-08T00:42:28.163Z,1.00
2023-04-08T00:52:30.302Z,1.47
2023-04-08T00:57:22.053Z,1.60
2023-04-08T01:02:39.241Z,1.43
2023-04-08T01:07:43.259Z,1.50
2023-04-08T01:12:47.856Z,2.30
2023-04-08T01:17:45.253Z,2.37
2023-04-08T01:28:22.881Z,3.03
2023-04-08T01:33:23.726Z,2.80
2023-04-08T01:38:19.657Z,2.40
2023-04-08T01:43:16.164Z,2.50
2023-04-08T01:48:09.352Z,2.20
2023-04-08T01:53:02.441Z,2.20
2023-04-08T01:57:58.513Z,2.47
2023-04-08T02:02:52.635Z,2.53
2023-04-08T02:07:46.602Z,2.50
2023-04-08T02:12:38.862Z,2.57
2023-04-08T02:17:45.393Z,2.63
2023-04-08T02:23:03.597Z,2.60
2023-04-08T02:27:58.496Z,2.83
2023-04-08T02:32:51.908Z,3.00
2023-04-08T02:37:47.818Z,2.77
2023-04-08T02:42:39.589Z,2.70
2023-04-08T02:47:31.280Z,2.90
2023-04-08T02:52:22.980Z,2.80
2023-04-08T02:57:14.680Z,3.10
2023-04-08T03:02:06.589Z,2.87
2023-04-08T03:06:58.400Z,3.00
2023-04-08T03:11:53.079Z,3.17
2023-04-08T03:16:44.781Z,3.37
2023-04-08T03:21:36.507Z,2.87
2023-04-08T03:26:29.024Z,3.13
2023-04-08T03:31:21.257Z,3.07
2023-04-08T03:36:13.266Z,2.80
2023-04-08T03:41:04.994Z,3.40
2023-04-08T03:45:56.891Z,3.20
2023-04-08T03:50:48.619Z,3.47
2023-04-08T03:55:40.378Z,3.20
2023-04-08T04:00:36.113Z,3.30
2023-04-08T04:05:28.875Z,3.23
2023-04-08T04:10:20.542Z,4.10
2023-04-08T04:15:12.501Z,3.47
2023-04-08T04:20:06.351Z,3.80
2023-04-08T04:24:58.033Z,4.13
2023-04-08T04:29:49.756Z,3.93
2023-04-08T04:39:47.977Z,4.07
2023-04-08T05:00:05.136Z,4.50
2023-04-08T05:10:07.652Z,4.00
2023-04-08T05:14:59.614Z,4.47
2023-04-08T05:19:57.629Z,4.73
2023-04-08T05:24:51.385Z,4.30
2023-04-08T05:34:50.602Z,4.43
2023-04-08T05:39:52.241Z,4.73
2023-04-08T05:44:50.304Z,4.90
2023-04-08T05:49:51.298Z,4.73
2023-04-08T05:59:53.285Z,4.83
2023-04-08T06:04:45.236Z,5.27
2023-04-08T06:09:37.745Z,5.40
2023-04-08T06:14:29.436Z,5.30
2023-04-08T06:19:21.100Z,5.37
2023-04-08T06:24:12.875Z,5.67
2023-04-08T06:49:32.398Z,5.20
2023-04-08T06:54:25.157Z,5.00
2023-04-08T06:59:16.933Z,5.73
2023-04-08T07:04:12.293Z,5.20
2023-04-08T07:09:04.798Z,5.73
2023-04-08T07:19:02.703Z,5.00
2023-04-08T07:23:54.370Z,5.27
2023-04-08T07:28:53.716Z,5.00
2023-04-08T07:33:47.310Z,5.70
2023-04-08T07:43:53.792Z,5.90
2023-04-08T07:48:56.579Z,6.03
2023-04-08T07:53:48.539Z,6.40
2023-04-08T07:58:42.619Z,6.00
2023-04-08T08:03:34.702Z,5.97
2023-04-08T08:13:34.272Z,6.20
2023-04-08T08:18:25.940Z,6.47
2023-04-08T08:49:06.932Z,5.57
2023-04-08T08:59:10.213Z,4.60
2023-04-08T09:04:28.616Z,6.33
2023-04-08T09:09:20.549Z,7.10
2023-04-08T09:14:24.444Z,7.20
2023-04-08T09:19:16.557Z,7.30
2023-04-08T09:24:10.902Z,7.07
2023-04-08T09:29:24.350Z,6.70
2023-04-08T09:34:19.524Z,7.00
2023-04-08T09:39:11.288Z,7.67
2023-04-08T09:44:10.913Z,6.23
2023-04-08T10:11:19.021Z,7.40
2023-04-08T10:32:55.602Z,7.57
2023-04-08T11:04:20.285Z,7.93
2023-04-08T11:09:14.216Z,7.47
2023-04-08T11:29:33.974Z,4.88
2023-04-08T11:49:53.784Z,6.37
2023-04-08T12:00:00.387Z,6.30
2023-04-08T12:10:00.648Z,6.33
2023-04-08T12:35:20.393Z,6.60
2023-04-08T12:45:24.058Z,6.13
2023-04-08T12:50:20.558Z,7.20
2023-04-08T13:15:37.171Z,6.00
2023-04-08T13:25:36.254Z,6.53
2023-04-08T13:35:46.198Z,8.93
2023-04-08T13:40:48.016Z,9.20
2023-04-08T13:50:51.073Z,8.50
2023-04-08T14:16:14.473Z,8.27
2023-04-08T14:21:11.519Z,7.07
2023-04-08T14:51:50.741Z,4.73
2023-04-08T14:56:43.916Z,5.47
2023-04-08T15:01:37.995Z,5.40
2023-04-08T15:11:36.787Z,5.10
2023-04-08T15:36:58.730Z,5.20
2023-04-08T15:41:51.614Z,5.70
2023-04-08T15:51:52.279Z,5.70
2023-04-08T15:56:47.446Z,6.13
2023-04-08T16:01:40.623Z,5.60
2023-04-08T16:06:34.238Z,6.07
2023-04-08T16:16:45.314Z,6.30
2023-04-08T16:21:45.389Z,6.20
2023-04-08T16:26:41.797Z,5.87
2023-04-08T16:36:40.410Z,5.40
2023-04-08T16:41:32.362Z,5.10
2023-04-08T16:51:30.081Z,6.83
2023-04-08T17:01:27.835Z,6.73
2023-04-08T17:06:19.571Z,7.17
2023-04-08T17:11:15.551Z,6.40
2023-04-08T17:16:21.982Z,6.93
2023-04-08T17:21:16.450Z,6.80
2023-04-08T17:26:14.734Z,6.27
2023-04-08T17:31:06.561Z,6.70
2023-04-08T17:35:58.527Z,6.27
2023-04-08T17:51:12.049Z,6.17
2023-04-08T17:56:08.061Z,6.23
2023-04-08T18:01:00.203Z,6.33
2023-04-08T18:05:56.308Z,6.77
2023-04-08T18:15:53.750Z,6.13
2023-04-08T18:20:46.019Z,6.17
2023-04-08T18:25:37.915Z,6.93
2023-04-08T18:30:30.190Z,6.63
2023-04-08T18:35:21.893Z,6.70
2023-04-08T18:40:13.647Z,6.90
2023-04-08T18:45:08.466Z,6.63
2023-04-08T18:50:00.796Z,6.40
2023-04-08T18:54:52.662Z,7.13
2023-04-08T18:59:48.302Z,6.70
2023-04-08T19:04:40.168Z,8.07
2023-04-08T19:09:32.939Z,7.63
2023-04-08T19:14:27.273Z,7.93
2023-04-08T19:19:19.516Z,8.43
2023-04-08T19:24:11.875Z,9.57
2023-04-08T19:29:07.458Z,9.87
2023-04-08T19:44:18.053Z,12.23
2023-04-08T19:49:09.800Z,13.23
2023-04-08T19:54:01.734Z,12.43
2023-04-08T20:03:59.368Z,12.37
2023-04-08T20:09:01.024Z,12.50
2023-04-08T20:13:52.738Z,12.13
2023-04-08T20:23:50.453Z,13.13
2023-04-08T20:28:44.871Z,12.63
2023-04-08T20:33:46.972Z,13.00
2023-04-08T20:43:44.660Z,12.80
2023-04-08T20:48:39.848Z,12.70
2023-04-08T20:53:33.846Z,13.17
2023-04-08T20:58:25.511Z,12.47
2023-04-08T21:03:17.550Z,13.47
2023-04-08T21:08:11.689Z,12.90
2023-04-08T21:13:08.283Z,13.73
2023-04-08T21:33:22.631Z,10.67
2023-04-08T21:43:26.219Z,10.97
2023-04-08T21:48:20.346Z,11.10
2023-04-08T21:53:20.401Z,10.67
2023-04-08T22:03:20.621Z,10.40
2023-04-08T22:18:33.068Z,10.43
2023-04-08T22:28:38.578Z,10.57
2023-04-08T22:53:55.450Z,11.13
2023-04-08T23:14:07.896Z,10.70
2023-04-08T23:29:13.163Z,11.37
2023-04-08T23:34:05.869Z,11.37
2023-04-08T23:49:12.794Z,10.73
